Lake View, New York
Current Conditions -  °F | °C
As of 1:54 AM on Monday 22 Dec 2014 (Local Time) from KBUF Reporting Station
Broken Clouds Broken Clouds  
Wind Chill: 22°   Ceiling: 1700
Heat Index: 30°   Visibility: 10mi
Dew Point: 23°   Wind: 8mph
Humidity: 75%   Direction: 120°ESE
Pressure: 30.24"   Gusts: NA
Location:  42.71°N, 78.94°W
Report Text: KBUF 220654Z 12007KT 10SM BKN017 M01/M05 A3024 RMK AO2 SLP247 T10111050
Loading
Personal Weather Stations






























Interactive Weather Map New forecast layout! Learn more

10-Day Weather Forecast

Advertisements
Track Severe Weather on mobile